createdAt,value
2018-07-22T14:56:57.154Z,1332
2018-07-22T14:58:07.384Z,1388
2018-07-22T14:59:17.633Z,1452
2018-07-22T15:00:27.881Z,1532
2018-07-22T15:01:38.144Z,1632
2018-07-22T15:02:48.206Z,1740
2018-07-22T15:03:58.393Z,1852
2018-07-22T15:05:08.679Z,1980
2018-07-22T15:06:19.112Z,2108
2018-07-22T15:07:29.408Z,2264
2018-07-22T15:08:39.693Z,2452
2018-07-22T15:09:49.937Z,2640
2018-07-22T15:11:00.164Z,2840
2018-07-22T15:12:10.481Z,3016
2018-07-22T15:13:20.810Z,3164
2018-07-22T15:14:31.321Z,3292
2018-07-22T15:15:41.698Z,3440
2018-07-22T15:16:51.916Z,3640
2018-07-22T15:18:02.167Z,3924
2018-07-22T15:19:12.652Z,4256
2018-07-22T15:20:22.894Z,4632
2018-07-22T15:21:33.348Z,5008
2018-07-22T15:22:43.802Z,5352
2018-07-22T15:23:54.097Z,5644
2018-07-22T15:25:04.405Z,5764
2018-07-22T15:26:14.622Z,5768
2018-07-22T15:27:25.130Z,5728
2018-07-22T15:28:35.208Z,5672
2018-07-22T15:29:45.555Z,5668
2018-07-22T15:30:55.815Z,5792
2018-07-22T15:32:06.032Z,6020
2018-07-22T15:33:16.307Z,6252
2018-07-22T15:34:26.271Z,6408
2018-07-22T15:35:36.732Z,6472
2018-07-22T15:36:46.976Z,6380
2018-07-22T15:37:57.011Z,6092
2018-07-22T15:39:07.295Z,5728
2018-07-22T15:40:17.656Z,5452
2018-07-22T15:41:27.897Z,5276
2018-07-22T15:42:38.153Z,5128
2018-07-22T15:43:48.619Z,4996
2018-07-22T15:44:58.862Z,4900
2018-07-22T15:46:09.147Z,4880
2018-07-22T15:47:19.393Z,4940
2018-07-22T15:48:29.675Z,5088
2018-07-22T15:49:40.146Z,5328
2018-07-22T15:50:50.499Z,5728
2018-07-22T15:52:00.790Z,6404
2018-07-22T15:53:11.088Z,7052
2018-07-22T15:54:21.283Z,7452
2018-07-22T15:55:32.570Z,7616
2018-07-22T15:56:43.719Z,7624
2018-07-22T15:57:54.000Z,7524
2018-07-22T15:59:04.136Z,7512
2018-07-22T16:00:14.455Z,7500
2018-07-22T16:01:24.870Z,7664
2018-07-22T16:02:35.274Z,8108
2018-07-22T16:03:45.464Z,8912
2018-07-22T16:04:55.896Z,9920
2018-07-22T16:06:06.255Z,11152
2018-07-22T16:07:16.441Z,11880
2018-07-22T16:08:26.624Z,12364
2018-07-22T16:09:36.884Z,12528
2018-07-22T16:10:47.212Z,12828
2018-07-22T16:11:57.445Z,13104
2018-07-22T16:13:07.650Z,13120
2018-07-22T16:14:17.983Z,13152
2018-07-22T16:15:28.207Z,12728
2018-07-22T16:16:38.581Z,11672
2018-07-22T16:17:48.957Z,10652
2018-07-22T16:18:59.212Z,9888
2018-07-22T16:20:09.447Z,9200
2018-07-22T16:21:19.668Z,8504
2018-07-22T16:22:29.979Z,7848
2018-07-22T16:23:40.402Z,7164
2018-07-22T16:24:50.674Z,6476
2018-07-22T16:26:00.974Z,5900
2018-07-22T16:27:11.234Z,5452
2018-07-22T16:28:21.481Z,5180
2018-07-22T16:29:31.685Z,4980
2018-07-22T16:30:41.939Z,4856
2018-07-22T16:31:52.151Z,4828
2018-07-22T16:33:02.333Z,4904
2018-07-22T16:34:12.631Z,4948
2018-07-22T16:35:22.956Z,4844
2018-07-22T16:36:33.378Z,4616
2018-07-22T16:37:43.980Z,4332
2018-07-22T16:38:54.338Z,4068
2018-07-22T16:40:04.374Z,3808
2018-07-22T16:41:14.625Z,3536
2018-07-22T16:42:25.170Z,3296
2018-07-22T16:43:35.433Z,3176
2018-07-22T16:44:45.759Z,3156
2018-07-22T16:45:56.504Z,3196
2018-07-22T16:47:07.010Z,3280
2018-07-22T16:48:17.287Z,3348
2018-07-22T16:49:27.634Z,3368
2018-07-22T16:50:38.023Z,3360
2018-07-22T16:51:48.039Z,3356
2018-07-22T16:52:58.341Z,3348
2018-07-22T16:54:09.071Z,3332
2018-07-22T16:55:19.355Z,3352
2018-07-22T16:56:29.681Z,3388
2018-07-22T16:57:40.042Z,3428
2018-07-22T16:58:50.263Z,3436
2018-07-22T17:00:01.303Z,3452
2018-07-22T17:01:11.346Z,3504
2018-07-22T17:02:21.704Z,3540
2018-07-22T17:03:32.045Z,3568
2018-07-22T17:04:42.443Z,3620
2018-07-22T17:05:52.998Z,3636
2018-07-22T17:07:03.358Z,3592
2018-07-22T17:08:13.715Z,3532
2018-07-22T17:09:24.121Z,3500
2018-07-22T17:10:34.195Z,3536
2018-07-22T17:11:44.592Z,3604
2018-07-22T17:12:54.899Z,3640
2018-07-22T17:14:05.096Z,3656
2018-07-22T17:15:15.480Z,3616
2018-07-22T17:16:25.773Z,3580
2018-07-22T17:17:36.079Z,3584
2018-07-22T17:18:46.985Z,3628
2018-07-22T17:19:57.039Z,3676
2018-07-22T17:21:07.266Z,3668
2018-07-22T17:22:17.523Z,3656
2018-07-22T17:23:27.693Z,3736
2018-07-22T17:24:37.881Z,3876
2018-07-22T17:25:47.970Z,4060
2018-07-22T17:26:58.285Z,4272
2018-07-22T17:28:08.711Z,4460
2018-07-22T17:29:18.900Z,4552
2018-07-22T17:30:29.106Z,4536
2018-07-22T17:31:39.316Z,4436
2018-07-22T17:32:49.551Z,4308
2018-07-22T17:33:59.607Z,4136
2018-07-22T17:35:09.896Z,3964
2018-07-22T17:36:20.108Z,3824
2018-07-22T17:37:30.315Z,3680
2018-07-22T17:38:40.607Z,3492
2018-07-22T17:39:50.941Z,3292
2018-07-22T17:41:01.195Z,3108
2018-07-22T17:42:11.449Z,2976
2018-07-22T17:43:21.660Z,2868
2018-07-22T17:44:32.180Z,2776
2018-07-22T17:45:42.548Z,2724
2018-07-22T17:46:52.797Z,2688
2018-07-22T17:48:03.055Z,2664
2018-07-22T17:49:13.294Z,2624
2018-07-22T17:50:23.528Z,2516
2018-07-22T17:51:33.904Z,2408
2018-07-22T17:52:44.279Z,2332
2018-07-22T17:53:54.582Z,2292
2018-07-22T17:55:04.886Z,2268
2018-07-22T17:56:15.191Z,2284
2018-07-22T17:57:25.588Z,2292
2018-07-22T17:58:35.935Z,2252
2018-07-22T17:59:46.361Z,2172
2018-07-22T18:00:56.609Z,2072
2018-07-22T18:02:06.953Z,1980
2018-07-22T18:03:17.216Z,1912
2018-07-22T18:04:27.481Z,1888
2018-07-22T18:05:38.031Z,1900
2018-07-22T18:06:48.358Z,1888
2018-07-22T18:07:58.636Z,1852
2018-07-22T18:09:09.005Z,1828
2018-07-22T18:10:19.330Z,1796
2018-07-22T18:11:29.753Z,1748
2018-07-22T18:12:40.043Z,1704
2018-07-22T18:13:50.103Z,1676
2018-07-22T18:15:00.390Z,1628
2018-07-22T18:16:10.721Z,1560
2018-07-22T18:17:21.036Z,1504
2018-07-22T18:18:31.285Z,1444
2018-07-22T18:19:41.632Z,1384
2018-07-22T18:20:51.946Z,1312
2018-07-22T18:22:02.315Z,1240
2018-07-22T18:23:12.791Z,1184
2018-07-22T18:24:23.215Z,1148
2018-07-22T18:25:33.580Z,1120
2018-07-22T18:26:44.138Z,1084
2018-07-22T18:27:54.694Z,1044
2018-07-22T18:29:05.057Z,1008
2018-07-22T18:30:15.534Z,984
2018-07-22T18:31:25.916Z,968
2018-07-22T18:32:36.196Z,956
2018-07-22T18:33:46.490Z,952
2018-07-22T18:34:56.762Z,928
2018-07-22T18:36:07.328Z,900
2018-07-22T18:37:18.553Z,868
2018-07-22T18:38:29.187Z,832
2018-07-22T18:39:39.559Z,812
2018-07-22T18:40:49.923Z,808
2018-07-22T18:42:00.293Z,800
2018-07-22T18:43:10.671Z,780
2018-07-22T18:44:20.917Z,760
2018-07-22T18:45:31.619Z,748
2018-07-22T18:46:41.811Z,736
2018-07-22T18:47:52.292Z,708
2018-07-22T18:49:02.692Z,676
2018-07-22T18:50:13.057Z,632
2018-07-22T18:51:23.046Z,580
2018-07-22T18:52:33.105Z,536
2018-07-22T18:53:43.489Z,480
2018-07-22T18:54:53.885Z,436
2018-07-22T18:56:04.299Z,412
2018-07-22T18:57:14.860Z,384
2018-07-22T18:58:25.149Z,360
2018-07-22T18:59:35.549Z,340
2018-07-22T19:00:46.078Z,308
2018-07-22T19:01:56.462Z,272
2018-07-22T19:03:07.030Z,248
2018-07-22T19:04:17.366Z,228
2018-07-22T19:05:27.913Z,208
2018-07-22T19:06:38.032Z,196
2018-07-22T19:07:48.503Z,180
2018-07-22T19:08:58.951Z,164
2018-07-22T19:10:09.289Z,152
2018-07-22T19:11:19.595Z,136
2018-07-22T19:12:30.976Z,124
2018-07-22T19:13:41.230Z,112
2018-07-22T19:14:51.487Z,100
2018-07-22T19:16:01.777Z,92
2018-07-22T19:17:12.013Z,84
2018-07-22T19:18:22.236Z,72
2018-07-22T19:19:32.467Z,68
2018-07-22T19:20:42.764Z,64
2018-07-22T19:21:53.041Z,60
2018-07-22T19:23:03.045Z,56
2018-07-22T19:24:12.939Z,52
2018-07-22T19:25:23.409Z,44
2018-07-22T19:26:33.704Z,40
2018-07-22T19:27:44.005Z,36
2018-07-22T19:28:54.302Z,32
2018-07-22T19:30:04.638Z,28
2018-07-22T19:31:14.512Z,24
2018-07-22T19:32:24.976Z,20
2018-07-22T19:33:35.213Z,20
2018-07-22T19:34:45.733Z,16
2018-07-22T19:35:56.011Z,16
2018-07-22T19:37:06.339Z,12
2018-07-22T19:38:16.920Z,12
2018-07-22T19:39:27.021Z,12
2018-07-22T19:40:37.420Z,12
2018-07-22T19:41:47.683Z,8
2018-07-22T19:42:58.247Z,8
2018-07-22T19:44:08.620Z,8
2018-07-22T19:45:19.090Z,8
2018-07-22T19:46:29.942Z,4
2018-07-22T19:47:40.321Z,4
2018-07-22T19:48:51.006Z,8
2018-07-22T19:50:01.302Z,4
2018-07-22T19:51:11.562Z,0
2018-07-22T19:52:10.070Z,4
2018-07-22T19:53:20.427Z,4
2018-07-22T19:54:30.800Z,4
2018-07-22T19:55:41.034Z,4
2018-07-22T19:56:51.269Z,0
2018-07-22T19:58:01.493Z,0
2018-07-22T19:59:11.722Z,4
2018-07-22T20:00:22.087Z,4
2018-07-22T20:01:32.377Z,0
2018-07-22T20:02:42.692Z,0
2018-07-22T20:03:53.099Z,0
2018-07-22T20:05:03.379Z,0
2018-07-22T20:06:13.628Z,0
2018-07-22T20:07:25.076Z,0
2018-07-22T20:08:35.435Z,0
2018-07-22T20:09:45.687Z,0
2018-07-22T20:10:55.965Z,0
2018-07-22T20:12:06.606Z,0
2018-07-22T20:13:16.921Z,0
2018-07-22T20:14:27.191Z,0
2018-07-22T20:15:37.726Z,0
2018-07-22T20:16:47.971Z,0
2018-07-22T20:17:58.314Z,0
2018-07-22T20:19:08.660Z,0
2018-07-22T20:20:18.957Z,0
2018-07-22T20:21:29.275Z,0
2018-07-22T20:22:39.356Z,0
2018-07-22T20:23:49.814Z,0
2018-07-22T20:25:00.301Z,0
2018-07-22T20:26:10.714Z,0
2018-07-22T20:27:21.148Z,0
2018-07-22T20:28:31.526Z,0
2018-07-22T20:29:41.849Z,0
2018-07-22T20:30:52.092Z,0
2018-07-22T20:32:02.369Z,0
2018-07-22T20:33:12.609Z,0
2018-07-22T20:34:22.679Z,0
2018-07-22T20:35:32.919Z,0
2018-07-22T20:36:43.190Z,0
2018-07-22T20:37:53.681Z,0
2018-07-22T20:39:04.140Z,0
2018-07-22T20:40:14.765Z,0
2018-07-22T20:41:24.725Z,0
2018-07-22T20:42:34.970Z,0
2018-07-22T20:43:45.200Z,0
2018-07-22T20:44:55.449Z,0
2018-07-22T20:46:05.877Z,0
2018-07-22T20:47:16.113Z,0
2018-07-22T20:48:26.432Z,0
2018-07-22T20:49:36.636Z,0
2018-07-22T20:50:46.629Z,0
2018-07-22T20:51:56.958Z,0
2018-07-22T20:53:07.237Z,0
2018-07-22T20:54:18.520Z,0
2018-07-22T20:55:28.711Z,0
2018-07-22T20:56:38.968Z,0
2018-07-22T20:57:49.202Z,0
2018-07-22T20:58:59.184Z,0
2018-07-22T21:00:09.410Z,0
2018-07-22T21:01:19.640Z,0
2018-07-22T21:02:30.096Z,0
2018-07-22T21:03:40.152Z,0
2018-07-22T21:04:50.373Z,0
2018-07-22T21:06:00.598Z,0
2018-07-22T21:07:10.797Z,0
2018-07-22T21:08:21.205Z,0
2018-07-22T21:09:31.607Z,0
2018-07-22T21:10:41.942Z,0
2018-07-22T21:11:52.169Z,0
2018-07-22T21:13:02.415Z,0
2018-07-22T21:14:12.606Z,0
2018-07-22T21:15:23.111Z,0
2018-07-22T21:16:33.415Z,0
2018-07-22T21:17:43.969Z,0
2018-07-22T21:18:54.243Z,0
2018-07-22T21:20:04.404Z,0
2018-07-22T21:21:14.599Z,0
2018-07-22T21:22:24.766Z,0
2018-07-22T21:23:34.924Z,0
2018-07-22T21:24:45.101Z,0
2018-07-22T21:25:55.321Z,0
2018-07-22T21:27:05.487Z,0
2018-07-22T21:28:15.694Z,0
2018-07-22T21:29:26.022Z,0
2018-07-22T21:30:36.274Z,0
2018-07-22T21:31:46.470Z,0
2018-07-22T21:32:56.662Z,0
2018-07-22T21:34:06.598Z,0
2018-07-22T21:35:16.757Z,0
2018-07-22T21:36:26.947Z,0
2018-07-22T21:37:36.829Z,0
2018-07-22T21:38:47.248Z,0
2018-07-22T21:39:57.125Z,0
2018-07-22T21:41:07.282Z,0
2018-07-22T21:42:17.449Z,0
2018-07-22T21:43:27.609Z,0
2018-07-22T21:44:37.800Z,0
2018-07-22T21:45:47.961Z,0
2018-07-22T21:46:58.447Z,0
2018-07-22T21:48:08.614Z,0
2018-07-22T21:49:18.898Z,0
2018-07-22T21:50:29.067Z,0
2018-07-22T21:51:39.214Z,0
2018-07-22T21:52:49.390Z,0
2018-07-22T21:53:59.592Z,0
2018-07-22T21:55:09.971Z,0
2018-07-22T21:56:20.194Z,0
2018-07-22T21:57:30.529Z,0
2018-07-22T21:58:40.965Z,0
2018-07-22T21:59:51.119Z,0
2018-07-22T22:01:01.029Z,0
2018-07-22T22:02:11.198Z,0
2018-07-22T22:03:21.081Z,0
2018-07-22T22:04:31.243Z,0
2018-07-22T22:05:42.533Z,0
2018-07-22T22:06:52.678Z,0
2018-07-22T22:08:02.354Z,0
2018-07-22T22:09:12.613Z,0
2018-07-22T22:10:22.792Z,0
2018-07-22T22:11:32.585Z,0
2018-07-22T22:12:42.751Z,0
2018-07-22T22:13:52.943Z,0
2018-07-22T22:15:03.116Z,0
2018-07-22T22:16:13.232Z,0
2018-07-22T22:17:23.623Z,0
2018-07-22T22:18:33.521Z,0
2018-07-22T22:19:43.706Z,0
2018-07-22T22:20:53.589Z,0
2018-07-22T22:22:03.470Z,0
2018-07-22T22:23:13.371Z,0
2018-07-22T22:24:23.538Z,0
2018-07-22T22:25:33.432Z,0
2018-07-22T22:26:43.568Z,0
2018-07-22T22:27:53.372Z,0
2018-07-22T22:29:03.506Z,0
2018-07-22T22:30:14.742Z,0
2018-07-22T22:31:24.900Z,0
2018-07-22T22:32:35.053Z,0
2018-07-22T22:33:45.277Z,0
2018-07-22T22:34:55.470Z,0
2018-07-22T22:36:05.664Z,0
2018-07-22T22:37:15.784Z,0
2018-07-22T22:38:26.266Z,0
2018-07-22T22:39:36.452Z,0
2018-07-22T22:40:46.712Z,0
2018-07-22T22:41:56.843Z,0
2018-07-22T22:43:07.037Z,0
2018-07-22T22:44:17.190Z,0
2018-07-22T22:45:27.142Z,0
2018-07-22T22:46:37.487Z,0
2018-07-22T22:47:47.617Z,0
2018-07-22T22:48:58.304Z,0
2018-07-22T22:50:08.468Z,0
2018-07-22T22:51:18.648Z,0
2018-07-22T22:52:28.924Z,0
2018-07-22T22:53:39.090Z,0
2018-07-22T22:54:49.337Z,0
2018-07-22T22:55:59.509Z,0
2018-07-22T22:57:09.660Z,0
2018-07-22T22:58:19.802Z,0
2018-07-22T22:59:29.705Z,0
2018-07-22T23:00:39.705Z,0
2018-07-22T23:01:49.844Z,0
2018-07-22T23:02:59.997Z,0
2018-07-22T23:04:10.176Z,0
2018-07-22T23:05:20.431Z,0
2018-07-22T23:06:32.156Z,0
2018-07-22T23:07:43.329Z,0
2018-07-22T23:08:53.458Z,0
2018-07-22T23:10:03.659Z,0
2018-07-22T23:11:13.900Z,0
2018-07-22T23:12:24.177Z,0
2018-07-22T23:13:34.363Z,0
2018-07-22T23:14:44.183Z,0
2018-07-22T23:15:54.340Z,0
2018-07-22T23:17:04.510Z,0
2018-07-22T23:18:14.697Z,0
2018-07-22T23:19:24.876Z,0
2018-07-22T23:20:35.106Z,0
2018-07-22T23:21:45.321Z,0
2018-07-22T23:22:55.486Z,0
2018-07-22T23:24:05.677Z,0
2018-07-22T23:25:15.814Z,0
2018-07-22T23:26:25.972Z,0
2018-07-22T23:27:35.862Z,0
2018-07-22T23:28:46.240Z,0
2018-07-22T23:29:56.457Z,0
2018-07-22T23:31:06.683Z,0
2018-07-22T23:32:16.890Z,0
2018-07-22T23:33:27.025Z,0
2018-07-22T23:34:37.304Z,0
2018-07-22T23:35:47.544Z,0
2018-07-22T23:36:57.785Z,0
2018-07-22T23:38:08.085Z,0
2018-07-22T23:39:18.242Z,0
2018-07-22T23:40:28.400Z,0
2018-07-22T23:41:38.690Z,0
2018-07-22T23:42:48.883Z,0
2018-07-22T23:43:58.749Z,0
2018-07-22T23:45:08.892Z,0
2018-07-22T23:46:19.060Z,0
2018-07-22T23:47:29.202Z,0
2018-07-22T23:48:39.370Z,0
2018-07-22T23:49:49.569Z,0
2018-07-22T23:50:59.737Z,0
2018-07-22T23:52:09.851Z,0
2018-07-22T23:53:19.978Z,0
2018-07-22T23:54:30.102Z,0
2018-07-22T23:55:40.039Z,0
2018-07-22T23:56:50.186Z,0
2018-07-22T23:58:00.349Z,0
2018-07-22T23:59:10.534Z,0
